• Join FlightAware (Why Join?)
  • Login
  • US Flag 
01:15AM EDT


 

Airport Tracker/Info


-or-


 

Live Flight TrackerFlight Track Log ✈ FDX1435 ✈ 09-May-2013 ✈ KMEM - KBDL

Flight Track Log - Related Links

Times and Time Zones

All times are in EDT time to prevent confusion due to time zone crossing. See the FDX1435 flight status page for this flight to view local times or setup timezone preferences in your user account.

Time Position Orientation Groundspeed Altitude Reporting Facility
EDT Latitude Longitude Course Direction KTS MPH feet Rate Location/Type
04:28AM 35.0333 -89.9667 180° South 141 162 1,100  Level KMEM
04:29AM 35.0167 -89.9667 180° South 141 162 2,000 1,980 Climbing KMEM
04:30AM 34.9500 -89.9500 168° South 249 287 3,900 2,760 Climbing KMEM
04:31AM 34.9333 -89.8833 107° East 283 326 7,600 2,940 Climbing KMEM
04:32AM 34.9997 -89.7539 58° Northeast 336 387 11,400 2,400 Climbing Memphis Center
04:33AM 35.1061 -89.7556 359° North 356 410 14,100 2,820 Climbing Memphis Center
04:34AM 35.2167 -89.7650 356° North 371 427 17,100 2,580 Climbing Memphis Center
04:35AM 35.3228 -89.7133 22° Northeast 387 445 19,300 2,100 Climbing Memphis Center
04:36AM 35.4075 -89.6006 47° Northeast 401 461 21,400 2,100 Climbing Memphis Center
04:37AM 35.4986 -89.4772 48° Northeast 450 518 23,500 1,860 Climbing Memphis Center
04:38AM 35.5811 -89.3717 46° Northeast 471 542 25,200 1,800 Climbing Memphis Center
04:39AM 35.6739 -89.2453 48° Northeast 490 564 27,200 2,280 Climbing Memphis Center
04:40AM 35.7644 -89.1239 47° Northeast 490 564 29,800 1,080 Climbing Memphis Center
04:46AM 36.2860 -88.4190 47° Northeast 463 533 35,000 780 Climbing FlightAware
04:47AM 36.3390 -88.3500 46° Northeast 463 533 35,000  Level FlightAware
04:48AM 36.4110 -88.2500 48° Northeast 461 531 35,000  Level FlightAware
04:48AM 36.4740 -88.1630 48° Northeast 463 533 35,000  Level FlightAware
04:49AM 36.5310 -88.0830 48° Northeast 466 536 35,000  Level FlightAware
04:50AM 36.5900 -88.0020 48° Northeast 466 536 35,000  Level FlightAware
04:50AM 36.6560 -87.9120 48° Northeast 463 533 35,000  Level FlightAware
04:51AM 36.7130 -87.8300 49° Northeast 461 531 35,000  Level FlightAware
04:52AM 36.7760 -87.7440 48° Northeast 456 525 35,000  Level FlightAware
04:52AM 36.8280 -87.6710 48° Northeast 459 528 35,000  Level FlightAware
04:53AM 36.8880 -87.5880 48° Northeast 459 528 35,000  Level FlightAware
04:54AM 36.9530 -87.4960 49° Northeast 456 525 35,000  Level FlightAware
04:55AM 37.0100 -87.4150 49° Northeast 458 527 35,000  Level FlightAware
04:55AM 37.0690 -87.3320 48° Northeast 460 529 35,000  Level FlightAware
04:56AM 37.1260 -87.2520 48° Northeast 461 531 35,000  Level FlightAware
04:57AM 37.1920 -87.1580 49° Northeast 459 528 35,000  Level FlightAware
04:57AM 37.2420 -87.0880 48° Northeast 460 529 35,000  Level FlightAware
04:58AM 37.3130 -86.9860 49° Northeast 459 528 35,000  Level FlightAware
04:59AM 37.3590 -86.9160 50° Northeast 461 531 35,000  Level FlightAware
04:59AM 37.4110 -86.8140 57° Northeast 463 533 35,000  Level FlightAware
05:00AM 37.4600 -86.7210 56° Northeast 468 539 35,000  Level FlightAware
05:01AM 37.5106 -86.6234 57° Northeast 468 539 35,000  Level FlightAware ADS-B
05:02AM 37.5590 -86.5320 56° Northeast 466 536 35,000  Level FlightAware
05:02AM 37.5728 -86.5029 59° Northeast 466 536 35,000  Level FlightAware ADS-B
05:02AM 37.6120 -86.4280 57° Northeast 466 536 35,000  Level FlightAware
05:03AM 37.6600 -86.3340 57° Northeast 466 536 35,000  Level FlightAware
05:04AM 37.7110 -86.2360 57° Northeast 466 536 35,000  Level FlightAware
05:04AM 37.7590 -86.1420 57° Northeast 465 535 35,000  Level FlightAware
05:05AM 37.8050 -86.0510 57° Northeast 464 534 35,000  Level FlightAware
05:06AM 37.8580 -85.9460 57° Northeast 464 534 35,000  Level FlightAware
05:06AM 37.8980 -85.8680 57° Northeast 464 534 35,000  Level FlightAware
05:07AM 37.9510 -85.7630 57° Northeast 466 536 35,000  Level FlightAware
05:08AM 38.0020 -85.6620 57° Northeast 462 532 35,000  Level FlightAware
05:09AM 38.0480 -85.5730 57° Northeast 462 532 35,000  Level FlightAware
05:09AM 38.0940 -85.4810 58° Northeast 465 535 35,000  Level FlightAware
05:10AM 38.1470 -85.3750 58° Northeast 467 537 35,000  Level FlightAware
05:11AM 38.1980 -85.2710 58° Northeast 466 536 35,000  Level FlightAware
05:11AM 38.2440 -85.1800 57° Northeast 465 535 35,000  Level FlightAware
05:12AM 38.2794 -85.1089 58° Northeast 465 535 35,000  Level FlightAware ADS-B
05:13AM 38.3430 -84.9790 58° Northeast 468 539 35,000  Level FlightAware
05:13AM 38.3860 -84.8920 58° Northeast 470 541 35,000  Level FlightAware
05:14AM 38.4360 -84.7910 58° Northeast 470 541 35,000  Level FlightAware
05:15AM 38.4850 -84.6900 58° Northeast 470 541 35,000  Level FlightAware
05:16AM 38.5320 -84.5930 58° Northeast 467 537 35,000  Level FlightAware
05:16AM 38.5840 -84.4870 58° Northeast 469 540 35,000  Level FlightAware
05:17AM 38.6260 -84.4010 58° Northeast 469 540 35,000  Level FlightAware
05:18AM 38.6650 -84.3210 58° Northeast 469 540 35,000  Level FlightAware
05:18AM 38.7040 -84.2410 58° Northeast 469 540 35,000  Level FlightAware
05:19AM 38.7430 -84.1610 58° Northeast 469 540 35,000  Level FlightAware
05:20AM 38.7920 -84.0610 58° Northeast 469 540 35,000  Level FlightAware
05:21AM 38.8870 -83.8590 59° Northeast 467 537 35,000  Level FlightAware
05:21AM 38.9320 -83.7640 59° Northeast 466 536 35,000  Level FlightAware
05:22AM 38.9800 -83.6610 59° Northeast 460 529 35,000  Level FlightAware
05:23AM 39.0230 -83.5690 59° Northeast 460 529 35,000  Level FlightAware
05:23AM 39.0720 -83.4690 58° Northeast 460 529 35,000  Level FlightAware
05:24AM 39.1210 -83.3630 59° Northeast 464 534 35,000  Level FlightAware
05:25AM 39.1690 -83.2610 59° Northeast 462 532 35,000  Level FlightAware
05:26AM 39.2140 -83.1640 59° Northeast 464 534 35,000  Level FlightAware
05:26AM 39.2580 -83.0690 59° Northeast 468 539 35,000  Level FlightAware
05:27AM 39.3090 -82.9590 59° Northeast 467 537 35,000  Level FlightAware
05:28AM 39.3500 -82.8730 58° Northeast 464 534 35,000  Level FlightAware
05:28AM 39.3900 -82.7850 60° Northeast 466 536 35,000  Level FlightAware
05:29AM 39.4450 -82.6650 59° Northeast 469 540 35,000  Level FlightAware
05:30AM 39.4900 -82.5680 59° Northeast 472 543 35,000  Level FlightAware
05:31AM 39.5410 -82.4560 59° Northeast 471 542 35,000  Level FlightAware
05:31AM 39.5850 -82.3590 59° Northeast 464 534 35,000  Level FlightAware
05:32AM 39.6320 -82.2540 60° Northeast 457 526 35,000  Level FlightAware
05:33AM 39.6760 -82.1580 59° Northeast 453 521 35,000  Level FlightAware
05:33AM 39.7170 -82.0660 60° Northeast 457 526 35,000  Level FlightAware
05:34AM 39.7660 -81.9570 60° Northeast 455 524 35,000  Level FlightAware
05:35AM 39.7980 -81.8860 60° Northeast 458 527 35,000  Level FlightAware
05:35AM 39.8410 -81.7910 59° Northeast 459 528 35,000  Level FlightAware
05:36AM 39.8890 -81.6830 60° Northeast 458 527 35,000  Level FlightAware
05:37AM 39.9260 -81.5990 60° Northeast 456 525 35,000  Level FlightAware
05:37AM 39.9720 -81.4950 60° Northeast 453 521 35,000  Level FlightAware
05:38AM 40.0210 -81.3830 60° Northeast 456 525 35,000  Level FlightAware
05:39AM 40.0630 -81.2880 60° Northeast 456 525 35,000  Level FlightAware
05:39AM 40.1110 -81.1800 60° Northeast 459 528 35,000  Level FlightAware
05:40AM 40.1510 -81.0860 61° Northeast 454 522 35,000  Level FlightAware
05:41AM 40.1920 -80.9930 60° Northeast 453 521 35,000  Level FlightAware
05:42AM 40.2400 -80.8830 60° Northeast 459 528 35,000  Level FlightAware
05:42AM 40.2820 -80.7840 61° Northeast 455 524 35,000  Level FlightAware
05:43AM 40.3220 -80.6910 61° Northeast 450 518 35,000  Level FlightAware
05:43AM 40.3540 -80.6200 59° Northeast 450 518 35,000  Level FlightAware
05:44AM 40.3990 -80.5120 61° Northeast 453 521 35,000  Level FlightAware
05:45AM 40.4400 -80.4160 61° Northeast 453 521 35,000  Level FlightAware
05:45AM 40.4810 -80.3200 61° Northeast 454 522 35,000  Level FlightAware
05:46AM 40.5270 -80.2110 61° Northeast 454 522 35,000  Level FlightAware
05:47AM 40.5690 -80.1130 61° Northeast 452 520 35,000  Level FlightAware
05:48AM 40.6100 -80.0170 61° Northeast 451 519 35,000  Level FlightAware
05:48AM 40.6540 -79.9110 61° Northeast 447 514 35,000  Level FlightAware
05:49AM 40.6930 -79.8170 61° Northeast 439 505 35,000  Level FlightAware
05:49AM 40.7220 -79.7490 61° Northeast 439 505 35,000  Level FlightAware
05:50AM 40.7620 -79.6550 61° Northeast 440 506 35,000  Level FlightAware
05:51AM 40.8000 -79.5630 61° Northeast 441 507 35,000  Level FlightAware
05:51AM 40.8390 -79.4690 61° Northeast 441 507 35,000  Level FlightAware
05:52AM 40.8820 -79.3640 62° Northeast 35,000  Level FlightAware
05:53AM 40.9140 -79.2860 61° Northeast 35,000  Level FlightAware
05:54AM 40.9560 -79.1850 61° Northeast 439 505 35,000  Level FlightAware
05:54AM 40.9990 -79.0780 62° Northeast 440 506 35,000  Level FlightAware
05:55AM 41.0380 -78.9830 61° Northeast 441 507 35,000  Level FlightAware
05:56AM 41.0810 -78.8760 62° Northeast 445 512 35,000  Level FlightAware
05:56AM 41.1210 -78.7760 62° Northeast 450 518 35,000  Level FlightAware
05:57AM 41.1590 -78.6840 61° Northeast 452 520 35,000  Level FlightAware
05:58AM 41.1950 -78.5960 61° Northeast 452 520 35,000  Level FlightAware
05:58AM 41.2430 -78.4750 62° Northeast 453 521 35,000  Level FlightAware
05:59AM 41.2880 -78.3600 62° Northeast 451 519 35,000  Level FlightAware
06:00AM 41.3270 -78.2620 62° Northeast 453 521 35,000  Level FlightAware
06:01AM 41.3660 -78.1650 62° Northeast 455 524 35,000  Level FlightAware
06:01AM 41.4090 -78.0560 62° Northeast 455 524 35,000  Level FlightAware
06:02AM 41.4490 -77.9550 62° Northeast 454 522 35,000  Level FlightAware
06:03AM 41.4930 -77.8430 62° Northeast 455 524 35,000  Level FlightAware
06:03AM 41.5320 -77.7430 62° Northeast 455 524 35,000  Level FlightAware
06:04AM 41.5710 -77.6400 63° Northeast 460 529 35,000  Level FlightAware
06:05AM 41.6160 -77.5270 62° Northeast 459 528 35,000  Level FlightAware
06:05AM 41.6550 -77.4260 63° Northeast 461 531 35,000  Level FlightAware
06:06AM 41.6990 -77.3100 63° Northeast 459 528 35,000 -300 Level FlightAware
06:07AM 41.7370 -77.2110 63° Northeast 462 532 34,600 -780 Descending FlightAware
06:08AM 41.7810 -77.0990 62° Northeast 460 529 33,900 -960 Descending FlightAware
06:08AM 41.8190 -76.9980 63° Northeast 453 521 33,300 -720 Descending FlightAware
06:09AM 41.8580 -76.8930 63° Northeast 457 526 33,000 -240 Descending FlightAware
06:10AM 41.9020 -76.7780 63° Northeast 461 531 33,000  Level FlightAware
06:10AM 41.9410 -76.6760 63° Northeast 460 529 33,000  Level FlightAware
06:11AM 41.9780 -76.5760 64° Northeast 462 532 33,000  Level FlightAware
06:12AM 42.0180 -76.4690 63° Northeast 459 528 33,000  Level FlightAware
06:12AM 42.0600 -76.3560 63° Northeast 458 527 33,000  Level FlightAware
06:13AM 42.1010 -76.2460 63° Northeast 461 531 33,000  Level FlightAware
06:14AM 42.1400 -76.1380 64° Northeast 465 535 33,000  Level FlightAware
06:15AM 42.1790 -76.0340 63° Northeast 467 537 33,000  Level FlightAware
06:15AM 42.2190 -75.9260 63° Northeast 468 539 33,000 -240 Level FlightAware
06:16AM 42.2530 -75.8320 64° Northeast 471 542 32,700 -1,200 Descending FlightAware
06:17AM 42.3000 -75.7010 64° Northeast 449 517 31,300 -1,680 Descending FlightAware
06:17AM 42.3390 -75.5950 64° Northeast 449 517 30,200 -1,560 Descending FlightAware
06:18AM 42.3680 -75.5120 65° Northeast 444 511 29,400 -1,560 Descending FlightAware
06:19AM 42.4190 -75.3710 64° Northeast 452 520 28,000 -1,620 Descending FlightAware
06:19AM 42.4490 -75.2650 69° East 454 522 27,000 -1,140 Descending FlightAware
06:20AM 42.4700 -75.1460 77° East 452 520 26,400 -480 Descending FlightAware
06:21AM 42.4860 -75.0520 77° East 452 520 26,400  Level FlightAware
06:22AM 42.5020 -74.9580 77° East 452 520 26,400  Level FlightAware
06:22AM 42.5180 -74.8640 77° East 452 520 26,400  Level FlightAware
06:23AM 42.5340 -74.7700 77° East 452 520 26,400  Level FlightAware
06:24AM 42.5540 -74.6530 77° East 452 520 26,400 -3,600 Level FlightAware
06:24AM 42.4819 -74.4897 77° East 424 488 21,100 -4,020 Descending Boston Center
06:25AM 42.4850 -74.3150 89° East 424 488 19,800 -1,200 Descending Boston Center
06:26AM 42.4831 -74.1744 91° East 424 488 18,700 -1,200 Descending Boston Center
06:27AM 42.4372 -74.0294 113° Southeast 392 451 17,500 -1,200 Descending Boston Center
06:28AM 42.3931 -73.9103 117° Southeast 384 442 16,300 -1,320 Descending Boston Center
06:29AM 42.3425 -73.7686 116° Southeast 384 442 14,900 -1,440 Descending Boston Center
06:30AM 42.2961 -73.6442 117° Southeast 374 430 13,500 -1,380 Descending Boston Center
06:31AM 42.2778 -73.5961 117° Southeast 374 430 13,100 -1,500 Descending Boston Center
06:31AM 42.2514 -73.5228 116° Southeast 369 425 12,000 -1,500 Descending Boston Center
06:32AM 42.2311 -73.4747 120° Southeast 368 423 11,600 -1,020 Descending Boston Center
06:32AM 42.2067 -73.4042 115° Southeast 369 425 11,000 -540 Descending Boston Center
06:33AM 42.1903 -73.3592 116° Southeast 344 396 11,100 -240 Climbing Boston Center
06:33AM 42.1617 -73.3028 124° Southeast 339 390 10,800 -540 Descending Boston Center
06:34AM 42.1347 -73.2744 142° Southeast 303 349 10,600 -1,020 Descending Boston Center
06:35AM 42.0811 -73.2064 137° Southeast 274 315 9,400 -1,440 Descending Boston Center
06:36AM 42.0253 -73.1389 138° Southeast 267 307 7,800 -1,620 Descending Boston Center
06:37AM 41.9714 -73.0739 138° Southeast 263 303 6,200 -1,560 Descending Boston Center
06:38AM 41.9156 -73.0092 139° Southeast 257 296 4,700 -1,080 Descending Boston Center
06:39AM 41.8678 -72.9503 137° Southeast 233 268 4,100 -660 Descending Boston Center
06:40AM 41.8222 -72.8914 136° Southeast 211 243 3,300 -780 Descending Boston Center
06:41AM 41.8308 -72.8303 79° East 190 219 2,600 -720 Descending Boston Center
06:42AM 41.8664 -72.7858 43° Northeast 181 208 2,000 -720 Descending Boston Center
06:43AM 41.8956 -72.7469 45° Northeast 148 170 1,200 -780 Descending Boston Center
06:44AM 41.9228 -72.7108 45° Northeast 129 148 500 -720 Descending Boston Center